createdAt,value
2022-12-03T00:00:15.672Z,18.4
2022-12-03T00:05:17.955Z,18.3
2022-12-03T00:10:20.117Z,18.2
2022-12-03T00:15:22.334Z,18.2
2022-12-03T00:20:24.552Z,18.1
2022-12-03T00:25:26.703Z,18
2022-12-03T00:30:28.895Z,18
2022-12-03T00:35:31.071Z,17.9
2022-12-03T00:40:33.241Z,17.8
2022-12-03T00:45:35.496Z,17.8
2022-12-03T00:50:37.925Z,17.8
2022-12-03T00:55:40.203Z,17.8
2022-12-03T01:00:42.546Z,17.7
2022-12-03T01:05:44.790Z,17.7
2022-12-03T01:10:46.944Z,17.7
2022-12-03T01:15:49.132Z,17.6
2022-12-03T01:20:51.312Z,17.6
2022-12-03T01:25:53.450Z,17.5
2022-12-03T01:30:55.763Z,17.5
2022-12-03T01:35:58.192Z,17.4
2022-12-03T01:41:00.536Z,17.4
2022-12-03T01:46:02.745Z,17.4
2022-12-03T01:51:05.047Z,17.3
2022-12-03T01:56:07.305Z,17.4
2022-12-03T02:01:09.476Z,17.3
2022-12-03T02:06:11.668Z,17.3
2022-12-03T02:11:13.828Z,17.3
2022-12-03T02:16:16.136Z,17.2
2022-12-03T02:21:18.500Z,17.2
2022-12-03T02:26:20.782Z,17.1
2022-12-03T02:31:23.126Z,17.1
2022-12-03T02:36:25.289Z,17.1
2022-12-03T02:41:27.427Z,17
2022-12-03T02:46:29.647Z,17.1
2022-12-03T02:51:31.828Z,17.1
2022-12-03T02:56:34.033Z,17
2022-12-03T03:01:36.591Z,17
2022-12-03T03:06:38.751Z,16.8
2022-12-03T03:11:40.955Z,16.9
2022-12-03T03:16:43.195Z,16.9
2022-12-03T03:21:45.331Z,16.9
2022-12-03T03:26:47.472Z,17
2022-12-03T03:31:49.857Z,17
2022-12-03T03:36:52.038Z,16.9
2022-12-03T03:41:54.344Z,16.9
2022-12-03T03:46:56.685Z,16.9
2022-12-03T03:51:58.990Z,16.8
2022-12-03T03:57:01.402Z,16.9
2022-12-03T04:02:03.699Z,16.8
2022-12-03T04:07:05.887Z,16.8
2022-12-03T04:12:08.092Z,16.8
2022-12-03T04:17:10.394Z,16.8
2022-12-03T04:22:12.774Z,16.7
2022-12-03T04:27:15.100Z,16.7
2022-12-03T04:32:17.261Z,16.7
2022-12-03T04:37:19.464Z,16.8
2022-12-03T04:42:21.612Z,16.6
2022-12-03T04:47:23.822Z,16.7
2022-12-03T04:52:26.265Z,16.6
2022-12-03T04:57:28.632Z,16.6
2022-12-03T05:02:31.095Z,16.5
2022-12-03T05:07:33.326Z,16.5
2022-12-03T05:12:35.411Z,16.5
2022-12-03T05:17:37.587Z,16.5
2022-12-03T05:22:39.799Z,16.6
2022-12-03T05:27:42.058Z,16.7
2022-12-03T05:32:44.277Z,16.7
2022-12-03T05:37:46.474Z,16.8
2022-12-03T05:42:48.704Z,16.9
2022-12-03T05:47:51.124Z,17.1
2022-12-03T05:52:53.515Z,17.1
2022-12-03T05:57:55.799Z,17.4
2022-12-03T06:02:58.164Z,17.6
2022-12-03T06:08:00.303Z,17.6
2022-12-03T06:13:02.398Z,17.8
2022-12-03T06:18:04.689Z,18
2022-12-03T06:23:06.879Z,18.1
2022-12-03T06:28:09.196Z,18.2
2022-12-03T06:33:11.517Z,18.4
2022-12-03T06:38:13.826Z,18.5
2022-12-03T06:43:16.009Z,18.4
2022-12-03T06:48:18.192Z,18.5
2022-12-03T06:53:20.391Z,18.6
2022-12-03T06:58:22.536Z,18.5
2022-12-03T07:03:24.807Z,18.4
2022-12-03T07:08:30.110Z,18.4
2022-12-03T07:13:32.515Z,18.4
2022-12-03T07:18:34.852Z,18.4
2022-12-03T07:23:37.148Z,18.4
2022-12-03T07:28:39.318Z,18.4
2022-12-03T07:33:41.556Z,18.4
2022-12-03T07:38:43.748Z,18.4
2022-12-03T07:43:45.880Z,18.5
2022-12-03T07:48:48.053Z,18.5
2022-12-03T07:53:50.253Z,18.6
2022-12-03T07:58:52.539Z,18.7
2022-12-03T08:03:54.958Z,18.4
2022-12-03T08:08:57.334Z,18.7
2022-12-03T08:13:59.477Z,18.9
2022-12-03T08:19:01.651Z,19
2022-12-03T08:24:03.841Z,19.1
2022-12-03T08:29:06.095Z,19.2
2022-12-03T08:34:08.319Z,19.3
2022-12-03T08:39:10.653Z,19.3
2022-12-03T08:44:12.914Z,19.4
2022-12-03T08:49:15.261Z,19.4
2022-12-03T08:54:17.624Z,19.4
2022-12-03T08:59:19.868Z,19.4
2022-12-03T09:04:22.081Z,19.5
2022-12-03T09:09:24.225Z,19.4
2022-12-03T09:14:26.351Z,19.4
2022-12-03T09:19:28.525Z,19.4
2022-12-03T09:24:30.716Z,19.3
2022-12-03T09:29:32.972Z,19.3
2022-12-03T09:34:35.328Z,19.3
2022-12-03T09:39:37.707Z,19.3
2022-12-03T09:44:39.871Z,19.2
2022-12-03T09:49:42.015Z,19.2
2022-12-03T09:54:47.194Z,19.2
2022-12-03T09:59:46.541Z,19.1
2022-12-03T10:04:48.946Z,19
2022-12-03T10:09:51.475Z,19
2022-12-03T10:14:53.806Z,19
2022-12-03T10:19:55.919Z,18.9
2022-12-03T10:24:57.993Z,18.8
2022-12-03T10:30:00.158Z,18.8
2022-12-03T10:35:02.424Z,18.6
2022-12-03T10:40:04.670Z,18.6
2022-12-03T10:45:06.837Z,18.5
2022-12-03T10:50:09.033Z,18.4
2022-12-03T10:55:11.216Z,18.3
2022-12-03T11:00:13.589Z,18.2
2022-12-03T11:05:15.963Z,18
2022-12-03T11:10:18.358Z,18
2022-12-03T11:15:20.559Z,17.9
2022-12-03T11:20:23.287Z,17.9
2022-12-03T11:25:24.985Z,17.8
2022-12-03T11:30:27.138Z,17.8
2022-12-03T11:35:29.316Z,17.7
2022-12-03T11:40:36.246Z,17.7
2022-12-03T11:45:33.942Z,17.6
2022-12-03T11:50:40.029Z,17.5
2022-12-03T11:55:38.529Z,17.5
2022-12-03T12:00:40.700Z,17.4
2022-12-03T12:05:42.888Z,17.4
2022-12-03T12:10:45.087Z,17.3
2022-12-03T12:15:47.378Z,17.2
2022-12-03T12:20:49.781Z,17.2
2022-12-03T12:25:54.306Z,17.1
2022-12-03T12:30:54.163Z,17.1
2022-12-03T12:35:56.321Z,17
2022-12-03T12:40:58.534Z,17.1
2022-12-03T12:46:09.437Z,17
2022-12-03T12:51:02.950Z,16.9
2022-12-03T12:56:05.154Z,16.9
2022-12-03T13:01:07.501Z,16.9
2022-12-03T13:06:09.788Z,16.9
2022-12-03T13:11:12.089Z,16.8
2022-12-03T13:16:14.299Z,16.8
2022-12-03T13:21:16.433Z,16.7
2022-12-03T13:31:20.880Z,16.7
2022-12-03T13:36:23.051Z,16.6
2022-12-03T13:41:25.246Z,16.6
2022-12-03T13:46:27.691Z,16.6
2022-12-03T13:51:29.886Z,16.7
2022-12-03T13:56:32.210Z,16.8
2022-12-03T14:01:34.415Z,16.8
2022-12-03T14:06:36.538Z,16.8
2022-12-03T14:11:38.859Z,17
2022-12-03T14:16:41.036Z,17
2022-12-03T14:21:43.370Z,17.2
2022-12-03T14:26:45.697Z,17.3
2022-12-03T14:31:47.842Z,17.5
2022-12-03T14:36:49.979Z,17.5
2022-12-03T14:41:52.191Z,17.7
2022-12-03T14:46:57.209Z,17.7
2022-12-03T14:51:56.663Z,17.9
2022-12-03T14:56:59.060Z,18
2022-12-03T15:02:01.381Z,18.1
2022-12-03T15:07:03.462Z,18
2022-12-03T15:12:05.665Z,18
2022-12-03T15:17:07.890Z,18
2022-12-03T15:22:10.027Z,18
2022-12-03T15:27:12.239Z,18.2
2022-12-03T15:32:14.528Z,18.1
2022-12-03T15:37:16.821Z,18
2022-12-03T15:42:19.029Z,18
2022-12-03T15:47:21.350Z,18
2022-12-03T15:52:23.728Z,18
2022-12-03T15:57:25.948Z,18
2022-12-03T16:02:28.156Z,18
2022-12-03T16:07:30.452Z,17.9
2022-12-03T16:12:32.584Z,18
2022-12-03T16:17:34.737Z,18.1
2022-12-03T16:22:37.018Z,18.2
2022-12-03T16:27:39.306Z,18.3
2022-12-03T16:32:41.624Z,18.4
2022-12-03T16:37:43.945Z,18.6
2022-12-03T16:42:46.144Z,18.8
2022-12-03T16:47:48.293Z,19
2022-12-03T16:52:50.468Z,19.2
2022-12-03T16:57:52.854Z,19.3
2022-12-03T17:02:55.136Z,19.3
2022-12-03T17:07:57.494Z,19.4
2022-12-03T17:13:15.268Z,19.4
2022-12-03T17:18:02.055Z,19.5
2022-12-03T17:23:04.331Z,19.5
2022-12-03T17:28:06.524Z,19.5
2022-12-03T17:33:08.738Z,19.4
2022-12-03T17:38:10.936Z,19.4
2022-12-03T17:43:13.133Z,19.4
2022-12-03T17:48:15.264Z,19.4
2022-12-03T17:53:17.455Z,19.4
2022-12-03T17:58:19.757Z,19.3
2022-12-03T18:03:22.070Z,19.3
2022-12-03T18:08:24.452Z,19.3
2022-12-03T18:13:26.647Z,19.3
2022-12-03T18:18:28.929Z,19.2
2022-12-03T18:23:31.268Z,19.2
2022-12-03T18:28:33.493Z,19.2
2022-12-03T18:33:35.657Z,19.3
2022-12-03T18:38:37.885Z,19.3
2022-12-03T18:43:40.086Z,19.3
2022-12-03T18:48:42.223Z,19.4
2022-12-03T18:53:44.407Z,19.5
2022-12-03T18:58:46.793Z,19.6
2022-12-03T19:03:49.038Z,19.8
2022-12-03T19:08:51.273Z,20
2022-12-03T19:13:53.551Z,20.1
2022-12-03T19:18:55.720Z,20.3
2022-12-03T19:24:23.603Z,20.3
2022-12-03T19:29:00.179Z,20.3
2022-12-03T19:34:02.414Z,20.5
2022-12-03T19:39:04.756Z,20.6
2022-12-03T19:44:10.839Z,20.6
2022-12-03T19:49:09.339Z,20.6
2022-12-03T19:54:11.707Z,20.7
2022-12-03T19:59:13.937Z,20.6
2022-12-03T20:04:16.071Z,20.6
2022-12-03T20:09:18.303Z,20.6
2022-12-03T20:14:20.569Z,20.6
2022-12-03T20:19:22.896Z,20.6
2022-12-03T20:24:25.167Z,20.6
2022-12-03T20:29:27.458Z,20.5
2022-12-03T20:34:29.676Z,20.5
2022-12-03T20:39:31.848Z,20.5
2022-12-03T20:44:34.052Z,20.3
2022-12-03T20:49:36.214Z,20.3
2022-12-03T20:54:38.380Z,20.3
2022-12-03T20:59:40.692Z,20.2
2022-12-03T21:04:42.917Z,20.2
2022-12-03T21:09:45.256Z,20.1
2022-12-03T21:14:47.602Z,20
2022-12-03T21:19:49.808Z,19.9
2022-12-03T21:24:51.976Z,19.9
2022-12-03T21:29:54.454Z,19.8
2022-12-03T21:34:56.400Z,19.7
2022-12-03T21:39:58.569Z,19.6
2022-12-03T21:45:00.963Z,19.6
2022-12-03T21:50:03.296Z,19.5
2022-12-03T21:55:05.671Z,19.5
2022-12-03T22:00:07.962Z,19.5
2022-12-03T22:05:10.114Z,19.4
2022-12-03T22:10:12.296Z,19.3
2022-12-03T22:15:18.637Z,19.3
2022-12-03T22:20:16.655Z,19.2
2022-12-03T22:25:18.859Z,19.2
2022-12-03T22:30:21.168Z,19.1
2022-12-03T22:35:23.380Z,19
2022-12-03T22:40:25.625Z,19
2022-12-03T22:45:27.916Z,18.8
2022-12-03T22:50:30.189Z,18.8
2022-12-03T22:55:32.465Z,18.8
2022-12-03T23:00:34.710Z,18.7
2022-12-03T23:05:36.871Z,18.6
2022-12-03T23:10:39.056Z,18.6
2022-12-03T23:15:41.283Z,18.5
2022-12-03T23:20:43.412Z,18.4
2022-12-03T23:25:45.769Z,18.3
2022-12-03T23:30:48.048Z,18.3
2022-12-03T23:35:50.285Z,18.3
2022-12-03T23:40:52.459Z,18.2
2022-12-03T23:45:54.653Z,18.1
2022-12-03T23:50:56.787Z,18
2022-12-03T23:55:58.969Z,18
